القامشلي, سوريا

11:29 AM EET on دسمبر 18, 2014 (GMT +0200)
Sirnak | Change Station
CLOSE
Current Station
Airport
Location: Sirnak,
Elevation: 0 ft
Nearby Weather Stations

Elev 0 ft 37.36 °N, 42.06 °E | Updated 39 minutes ago

Mostly Cloudy
غائم كلياً
52 °F
Feels Like 52 °F
N
5
ريح متغير ريح from جنوب غربی

هذا اليوم
High -- | Low -- °F
--% Chance of Precip.
Yesterday
High -- | Low -- °F
Precip. -- في
6:22 AM 4:00 PM
الهلال الأخير, 16% visible
الضغط 30.24 في
وضوح الرؤية 6.2 أميال
سحابات Few 4000 ft
غائم كلياً 16000 ft
نقطة الندى 41 °F
الرطوبة 67%
Rainfall 0.00 في
عمق الثلج Not available.
الأشعة فوق البنفسجية 2 out of 12
Pollen Not available.
جودة الهواء Not available.
Flu Activity Not available.
METAR LTCV 180850Z 22004KT 190V260 9999 FEW040 BKN160 11/05 Q1024

More Conditions Fewer Conditions

الضغط 30.24 في
وضوح الرؤية 6.2 أميال
سحابات Few 4000 ft
غائم كلياً 16000 ft
نقطة الندى 41 °F
الرطوبة 67%
Rainfall 0.00 في
عمق الثلج Not available.
الأشعة فوق البنفسجية 2 out of 12
Pollen Not available.
جودة الهواء Not available.
Flu Activity Not available.
METAR LTCV 180850Z 22004KT 190V260 9999 FEW040 BKN160 11/05 Q1024

More Conditions Fewer Conditions

10-Day Weather Forecast

Almanac

علم الفلك

Dec. 18, 2014 Rise Set
Actual Time
Civil Twilight
Nautical Twilight
Astronomical Twilight
قمر
Length Of Visible Light
طول الیوم
Tomorrow will be .
, % of the Moon is Illuminated

Today's Extremes

Country Highs Country Lows

Community

WunderPhotos

Upload Photos

1,778,907 photos uploaded!

WunderBlogs® & News

Nearby

جودة الهواء

  جودة الهواء AQ Index Pollutant
Not available.

عمق الثلج

Station Depth Elevation

Earthquake Activity

City Distance Mag. Time & Date
Minimum magnitude displayed is 2.5.

Coastal Water Temperatures

مكان درجات الحرارة

Nearby Weather Stations